Time;durP1;ratioP1;P1;durP2;ratioP2;P2;SDS_P1;SDS_P2;PMS_P1;PMS_P2;Temp;Humidity;BMP_temperature;BMP_pressure;BME280_temperature;BME280_humidity;BME280_pressure;Samples;Min_cycle;Max_cycle;Signal;HPM_P1;HPM_P2
2023/04/25 00:01:57;;;;;;;;;;;;;;;10.81;93.88;100639.66;4993810;28;19914;-69
2023/04/25 00:04:22;;;;;;;;;;;;;;;10.82;93.92;100640.47;5008987;28;19914;-68
2023/04/25 00:06:48;;;;;;;;;;;;;;;10.81;93.24;100641.47;4993689;28;19913;-70
2023/04/25 00:09:13;;;;;;;;;;;;;;;10.78;93.78;100639.16;4993795;28;19921;-69
2023/04/25 00:11:40;;;;;;;;;;;;;;;10.73;93.70;100639.66;4993269;28;20428;-68
2023/04/25 00:14:06;;;;;;;;;;;;;;;10.70;93.42;100639.16;4993328;28;19921;-68
2023/04/25 00:16:33;;;;;;;;;;;;;;;10.67;93.44;100637.63;4993455;28;19914;-69
2023/04/25 00:18:59;;;;;;;;;;;;;;;10.65;94.00;100639.63;4993586;28;19914;-69
2023/04/25 00:21:25;;;;;;;;;;;;;;;10.64;94.00;100629.97;4960054;28;19924;-68
2023/04/25 00:23:52;;;;;;;;;;;;;;;10.61;94.27;100632.97;4993387;28;19922;-69
2023/04/25 00:26:17;;;;;;;;;;;;;;;10.59;94.05;100637.63;4975893;28;20443;-71
2023/04/25 00:28:43;;;;;;;;;;;;;;;10.54;94.45;100642.63;4993181;28;20012;-69
2023/04/25 00:31:08;;;;;;;;;;;;;;;10.52;94.98;100637.47;4992837;28;20017;-70
2023/04/25 00:33:33;;;;;;;;;;;;;;;10.50;96.26;100636.81;4993473;28;19918;-68
2023/04/25 00:35:59;;;;;;;;;;;;;;;10.47;97.51;100630.97;4993313;28;20021;-68
2023/04/25 00:38:24;;;;;;;;;;;;;;;10.43;98.50;100638.47;4993970;28;20362;-71
2023/04/25 00:40:49;;;;;;;;;;;;;;;10.41;99.34;100637.81;4994635;28;20012;-70
2023/04/25 00:43:15;;;;;;;;;;;;;;;10.39;98.45;100636.28;4993977;28;19913;-68
2023/04/25 00:45:40;;;;;;;;;;;;;;;10.36;98.47;100629.44;4994804;28;19969;-69
2023/04/25 00:48:06;;;;;;;;;;;;;;;10.35;98.65;100633.13;4994637;28;19960;-67
2023/04/25 00:50:33;;;;;;;;;;;;;;;10.33;98.90;100639.59;4995081;28;19961;-68
2023/04/25 00:52:58;;;;;;;;;;;;;;;10.28;99.35;100633.94;5010128;28;19918;-69
2023/04/25 00:55:24;;;;;;;;;;;;;;;10.24;98.24;100636.94;4994821;28;19920;-69
2023/04/25 00:57:50;;;;;;;;;;;;;;;10.21;98.40;100642.59;4993445;28;20510;-69
2023/04/25 01:00:16;;;;;;;;;;;;;;;10.16;99.24;100631.56;4994071;28;20369;-70
2023/04/25 01:02:42;;;;;;;;;;;;;;;10.12;99.25;100635.56;4994069;28;19913;-69
2023/04/25 01:05:08;;;;;;;;;;;;;;;10.07;99.30;100640.50;4995533;28;19920;-69
2023/04/25 01:07:34;;;;;;;;;;;;;;;10.03;99.71;100639.16;4993183;28;20266;-70
2023/04/25 01:09:59;;;;;;;;;;;;;;;10.02;98.80;100642.00;4993062;28;19914;-70
2023/04/25 01:12:25;;;;;;;;;;;;;;;9.99;99.01;100637.00;4992987;28;19960;-69
2023/04/25 01:14:50;;;;;;;;;;;;;;;9.96;99.04;100643.47;4992792;28;19961;-71
2023/04/25 01:17:17;;;;;;;;;;;;;;;9.93;99.41;100639.31;4999430;28;19913;-70
2023/04/25 01:19:52;;;;;;;;;;;;;;;9.91;99.68;100645.78;5001504;28;19914;-70
2023/04/25 01:22:18;;;;;;;;;;;;;;;9.88;99.89;100646.13;5015895;28;20357;-68
2023/04/25 01:24:56;;;;;;;;;;;;;;;9.86;99.51;100640.97;5014770;28;19956;-69
2023/04/25 01:27:22;;;;;;;;;;;;;;;9.86;99.80;100646.28;5016360;28;19913;-71
2023/04/25 01:29:49;;;;;;;;;;;;;;;9.85;100.00;100636.63;5016813;28;19921;-70
2023/04/25 01:32:15;;;;;;;;;;;;;;;9.85;99.83;100636.63;5016986;28;19924;-69
2023/04/25 01:34:40;;;;;;;;;;;;;;;9.86;99.06;100637.47;5016187;28;19913;-70
2023/04/25 01:37:06;;;;;;;;;;;;;;;9.84;99.03;100634.97;5016239;28;20003;-69
2023/04/25 01:39:31;;;;;;;;;;;;;;;9.79;98.70;100639.06;5015907;28;20024;-70
2023/04/25 01:41:58;;;;;;;;;;;;;;;9.77;98.62;100641.06;5015805;28;19914;-68
2023/04/25 01:44:23;;;;;;;;;;;;;;;9.75;98.61;100641.22;5015950;28;19921;-69
2023/04/25 01:46:48;;;;;;;;;;;;;;;9.75;98.56;100643.88;5016417;28;19914;-69
2023/04/25 01:49:14;;;;;;;;;;;;;;;9.73;99.07;100631.75;5016642;28;20383;-69
2023/04/25 01:51:39;;;;;;;;;;;;;;;9.71;99.02;100628.41;5017242;28;19920;-71
2023/04/25 01:54:05;;;;;;;;;;;;;;;9.71;98.58;100633.75;5016992;28;19913;-68
2023/04/25 01:56:31;;;;;;;;;;;;;;;9.70;98.26;100637.38;5016700;28;19913;-69
2023/04/25 01:58:57;;;;;;;;;;;;;;;9.69;98.43;100631.25;5017164;28;19913;-70
2023/04/25 02:01:22;;;;;;;;;;;;;;;9.69;97.67;100636.56;5016972;28;19959;-69
2023/04/25 02:03:47;;;;;;;;;;;;;;;9.69;98.45;100633.06;4999123;28;19957;-70
2023/04/25 02:06:12;;;;;;;;;;;;;;;9.68;98.05;100632.22;5014527;28;19920;-70
2023/04/25 02:08:38;;;;;;;;;;;;;;;9.69;97.19;100635.72;5015646;28;19949;-69
2023/04/25 02:11:03;;;;;;;;;;;;;;;9.67;97.13;100633.22;5015346;28;20102;-68
2023/04/25 02:13:28;;;;;;;;;;;;;;;9.66;97.21;100630.72;5015475;28;19913;-69
2023/04/25 02:15:54;;;;;;;;;;;;;;;9.65;96.96;100634.38;5014767;28;19913;-69
2023/04/25 02:18:20;;;;;;;;;;;;;;;9.65;96.83;100634.38;5018458;28;20035;-69
2023/04/25 02:20:46;;;;;;;;;;;;;;;9.63;96.98;100626.56;5016608;28;19999;-69
2023/04/25 02:23:12;;;;;;;;;;;;;;;9.65;96.24;100639.69;5017257;28;19917;-68
2023/04/25 02:25:37;;;;;;;;;;;;;;;9.66;96.32;100633.38;5019383;28;19920;-69
2023/04/25 02:28:03;;;;;;;;;;;;;;;9.66;96.16;100636.03;5018211;28;19920;-70
2023/04/25 02:30:28;;;;;;;;;;;;;;;9.67;95.93;100640.38;5017113;28;19961;-69
2023/04/25 02:32:53;;;;;;;;;;;;;;;9.67;95.43;100640.38;5015535;28;19917;-69
2023/04/25 02:35:19;;;;;;;;;;;;;;;9.67;94.88;100632.41;5014989;28;19914;-70
2023/04/25 02:37:45;;;;;;;;;;;;;;;9.66;94.66;100644.03;5014738;28;19950;-69
2023/04/25 02:40:10;;;;;;;;;;;;;;;9.67;94.77;100637.72;5014554;28;19913;-70
2023/04/25 02:42:36;;;;;;;;;;;;;;;9.69;93.49;100635.72;5014880;28;20059;-70
2023/04/25 02:45:02;;;;;;;;;;;;;;;9.71;93.01;100639.06;5014779;28;20364;-68
2023/04/25 02:47:29;;;;;;;;;;;;;;;9.69;93.32;100641.03;5014569;28;19924;-69
2023/04/25 02:49:54;;;;;;;;;;;;;;;9.69;93.06;100636.56;5014715;28;19914;-68
2023/04/25 02:52:21;;;;;;;;;;;;;;;9.70;92.27;100634.72;5014593;28;20016;-68
2023/04/25 02:54:46;;;;;;;;;;;;;;;9.72;91.81;100635.41;5014403;28;20284;-69
2023/04/25 02:57:11;;;;;;;;;;;;;;;9.74;91.52;100634.25;5014546;28;19913;-69
2023/04/25 02:59:37;;;;;;;;;;;;;;;9.74;91.15;100626.25;5014562;28;19914;-68
2023/04/25 03:02:02;;;;;;;;;;;;;;;9.77;90.66;100625.94;4996950;28;20005;-69
2023/04/25 03:04:27;;;;;;;;;;;;;;;9.78;90.72;100630.28;5014372;28;19956;-69
2023/04/25 03:06:53;;;;;;;;;;;;;;;9.79;90.22;100625.78;5014579;28;19914;-69
2023/04/25 03:09:18;;;;;;;;;;;;;;;9.78;88.13;100634.75;5014405;28;20072;-69
2023/04/25 03:11:44;;;;;;;;;;;;;;;9.81;88.72;100634.44;5014196;28;19949;-69
2023/04/25 03:14:09;;;;;;;;;;;;;;;9.83;88.47;100637.75;5014166;28;19921;-68
2023/04/25 03:16:35;;;;;;;;;;;;;;;9.87;88.25;100644.44;5014088;28;19940;-67
2023/04/25 03:19:00;;;;;;;;;;;;;;;9.90;88.01;100639.63;5014149;28;19913;-69
2023/04/25 03:21:26;;;;;;;;;;;;;;;9.95;87.35;100647.13;5013790;28;19936;-69
2023/04/25 03:23:52;;;;;;;;;;;;;;;10.03;86.39;100643.66;5013855;28;19960;-70
2023/04/25 03:26:17;;;;;;;;;;;;;;;10.10;86.07;100644.66;5014030;28;19965;-69
2023/04/25 03:28:43;;;;;;;;;;;;;;;10.24;85.55;100652.91;5013432;28;19920;-68
2023/04/25 03:31:08;;;;;;;;;;;;;;;10.41;84.78;100652.94;5013072;28;19918;-70
2023/04/25 03:33:34;;;;;;;;;;;;;;;10.47;83.26;100653.13;5014016;28;19917;-69
2023/04/25 03:35:59;;;;;;;;;;;;;;;10.57;82.59;100647.63;5013978;28;19913;-69
2023/04/25 03:38:25;;;;;;;;;;;;;;;10.55;81.54;100653.13;5014286;28;20304;-70
2023/04/25 03:40:52;;;;;;;;;;;;;;;10.49;81.71;100656.44;5014252;28;20269;-70
2023/04/25 03:43:17;;;;;;;;;;;;;;;10.46;81.70;100655.94;5012599;28;20037;-71
2023/04/25 03:45:42;;;;;;;;;;;;;;;10.44;82.08;100657.94;5013671;28;20412;-68
2023/04/25 03:48:08;;;;;;;;;;;;;;;10.42;81.92;100654.63;5013763;28;19924;-69
2023/04/25 03:50:34;;;;;;;;;;;;;;;10.44;81.43;100668.59;4996575;28;19913;-70
2023/04/25 03:52:59;;;;;;;;;;;;;;;10.52;81.22;100655.28;5014226;28;20030;-68
2023/04/25 03:55:24;;;;;;;;;;;;;;;10.55;81.42;100665.59;5013343;28;20008;-68
2023/04/25 03:57:50;;;;;;;;;;;;;;;10.54;80.49;100662.09;5013490;28;19913;-70
2023/04/25 04:00:15;;;;;;;;;;;;;;;10.52;80.38;100655.28;5013363;28;19913;-70
2023/04/25 04:02:41;;;;;;;;;;;;;;;10.53;80.23;100662.28;5013215;28;19917;-69
2023/04/25 04:05:06;;;;;;;;;;;;;;;10.53;80.04;100663.09;5013037;28;19920;-71
2023/04/25 04:07:32;;;;;;;;;;;;;;;10.52;79.70;100661.44;5013441;28;20272;-70
2023/04/25 04:09:58;;;;;;;;;;;;;;;10.52;79.52;100661.44;5013398;28;20406;-68
2023/04/25 04:12:23;;;;;;;;;;;;;;;10.52;79.42;100663.28;5013341;28;19920;-70
2023/04/25 04:14:49;;;;;;;;;;;;;;;10.51;79.41;100665.09;5015935;28;19913;-70
2023/04/25 04:17:14;;;;;;;;;;;;;;;10.49;79.10;100660.94;5005509;28;20388;-68
2023/04/25 04:19:39;;;;;;;;;;;;;;;10.54;78.74;100663.94;5018062;28;20411;-69
2023/04/25 04:22:05;;;;;;;;;;;;;;;10.57;78.45;100668.09;5013209;28;20277;-70
2023/04/25 04:24:30;;;;;;;;;;;;;;;10.60;77.99;100657.09;5014043;28;20381;-69
2023/04/25 04:26:56;;;;;;;;;;;;;;;10.64;77.66;100653.94;5013913;28;19920;-71
2023/04/25 04:29:22;;;;;;;;;;;;;;;10.73;77.47;100660.97;5013890;28;19920;-68
2023/04/25 04:31:52;;;;;;;;;;;;;;;10.79;77.30;100652.31;5013463;28;20288;-69
2023/04/25 04:34:18;;;;;;;;;;;;;;;10.84;76.78;100660.63;5013140;28;19913;-70
2023/04/25 04:36:46;;;;;;;;;;;;;;;10.89;76.49;100661.94;5012798;28;19920;-68
2023/04/25 04:39:12;;;;;;;;;;;;;;;10.92;76.01;100661.63;5012977;28;19920;-69
2023/04/25 04:41:38;;;;;;;;;;;;;;;10.92;75.64;100656.28;5014193;28;19921;-69
2023/04/25 04:44:03;;;;;;;;;;;;;;;10.91;75.97;100659.94;5012849;28;19922;-70
2023/04/25 04:46:30;;;;;;;;;;;;;;;10.92;75.86;100662.44;4995089;28;19914;-69
2023/04/25 04:48:56;;;;;;;;;;;;;;;10.98;75.16;100664.44;5012830;28;19918;-70
2023/04/25 04:51:21;;;;;;;;;;;;;;;11.09;75.09;100673.94;5012330;28;20000;-69
2023/04/25 04:53:46;;;;;;;;;;;;;;;11.22;74.59;100668.91;5012533;28;20401;-71
2023/04/25 04:56:12;;;;;;;;;;;;;;;11.36;74.10;100659.41;5012464;28;20377;-70
2023/04/25 04:58:37;;;;;;;;;;;;;;;11.55;73.86;100663.50;5014246;28;19953;-69
2023/04/25 05:01:02;;;;;;;;;;;;;;;11.70;73.82;100662.63;5016396;28;19966;-69
2023/04/25 05:03:28;;;;;;;;;;;;;;;11.86;72.78;100660.94;5016087;28;19917;-69
2023/04/25 05:05:53;;;;;;;;;;;;;;;12.00;72.86;100663.72;5017294;28;19921;-69
2023/04/25 05:08:19;;;;;;;;;;;;;;;12.12;72.46;100652.63;5018149;28;19914;-70
2023/04/25 05:10:44;;;;;;;;;;;;;;;12.18;71.99;100654.63;5017497;28;19920;-68
2023/04/25 05:13:09;;;;;;;;;;;;;;;12.19;71.14;100653.63;5016681;28;19914;-69
2023/04/25 05:15:35;;;;;;;;;;;;;;;12.19;70.59;100659.78;5016277;28;19913;-69
2023/04/25 05:18:01;;;;;;;;;;;;;;;12.26;70.66;100662.56;5016254;28;19913;-70
2023/04/25 05:20:26;;;;;;;;;;;;;;;12.36;69.15;100665.84;5015960;28;19914;-69
2023/04/25 05:22:51;;;;;;;;;;;;;;;12.51;69.67;100664.09;5016156;28;19913;-70
2023/04/25 05:25:17;;;;;;;;;;;;;;;12.73;69.74;100658.94;5015280;28;19924;-69
2023/04/25 05:27:42;;;;;;;;;;;;;;;12.93;68.31;100660.06;5015983;28;19914;-69
2023/04/25 05:30:09;;;;;;;;;;;;;;;13.13;67.46;100655.91;5016031;28;19921;-68
2023/04/25 05:32:35;;;;;;;;;;;;;;;13.25;64.58;100643.75;5016516;28;19917;-70
2023/04/25 05:35:00;;;;;;;;;;;;;;;13.35;62.99;100648.03;5015814;28;20276;-70
2023/04/25 05:37:26;;;;;;;;;;;;;;;13.48;65.06;100649.03;4998093;28;20368;-69
2023/04/25 05:39:51;;;;;;;;;;;;;;;13.66;64.58;100651.34;5016223;28;19960;-69
2023/04/25 05:42:17;;;;;;;;;;;;;;;13.81;64.61;100654.84;5015677;28;19914;-69
2023/04/25 05:44:42;;;;;;;;;;;;;;;13.88;61.62;100655.78;5015658;28;19960;-69
2023/04/25 05:47:07;;;;;;;;;;;;;;;13.89;62.88;100651.25;5015513;28;20347;-69
2023/04/25 05:49:33;;;;;;;;;;;;;;;13.94;64.05;100649.66;5015759;28;20092;-70
2023/04/25 05:51:59;;;;;;;;;;;;;;;14.01;64.12;100649.75;5020117;28;19921;-70
2023/04/25 05:54:24;;;;;;;;;;;;;;;14.09;60.81;100646.94;5023709;28;19913;-67
2023/04/25 05:56:49;;;;;;;;;;;;;;;14.12;61.95;100649.25;5017755;28;19913;-67
2023/04/25 05:59:15;;;;;;;;;;;;;;;14.16;59.68;100647.03;5016587;28;19914;-68
2023/04/25 06:01:41;;;;;;;;;;;;;;;14.20;60.76;100649.16;5017249;28;20249;-66
2023/04/25 06:04:07;;;;;;;;;;;;;;;14.20;60.05;100642.97;4999889;28;19914;-67
2023/04/25 06:06:32;;;;;;;;;;;;;;;14.18;58.79;100650.38;5017188;28;19932;-67
2023/04/25 06:08:57;;;;;;;;;;;;;;;14.23;58.69;100647.94;5018199;28;19921;-69
2023/04/25 06:11:23;;;;;;;;;;;;;;;14.33;58.02;100645.78;5014751;28;20246;-67
2023/04/25 06:13:48;;;;;;;;;;;;;;;14.50;58.36;100652.59;5015403;28;19964;-67
2023/04/25 06:16:14;;;;;;;;;;;;;;;14.71;58.02;100657.13;5015917;28;20276;-67
2023/04/25 06:18:48;;;;;;;;;;;;;;;14.94;56.81;100656.91;5014867;28;19920;-67
2023/04/25 06:21:13;;;;;;;;;;;;;;;15.12;55.52;100659.97;5015082;28;19913;-67
2023/04/25 06:23:39;;;;;;;;;;;;;;;15.18;55.70;100644.94;5015311;28;20395;-67
2023/04/25 06:26:05;;;;;;;;;;;;;;;15.26;53.27;100652.00;5015150;28;19947;-68
2023/04/25 06:28:30;;;;;;;;;;;;;;;15.24;50.69;100651.38;5013886;28;19913;-66
2023/04/25 06:30:58;;;;;;;;;;;;;;;15.16;51.06;100645.13;5014701;28;20012;-68
2023/04/25 06:33:24;;;;;;;;;;;;;;;15.13;51.45;100645.53;5014553;28;19963;-68
2023/04/25 06:35:50;;;;;;;;;;;;;;;15.16;50.72;100644.31;5015092;28;19936;-67
2023/04/25 06:38:15;;;;;;;;;;;;;;;15.15;51.23;100651.53;5013862;28;20334;-69
2023/04/25 06:40:40;;;;;;;;;;;;;;;15.20;52.45;100645.56;5014792;28;20269;-68
2023/04/25 06:43:06;;;;;;;;;;;;;;;15.20;51.79;100640.19;4997250;28;19913;-69
2023/04/25 06:45:31;;;;;;;;;;;;;;;15.22;52.53;100645.38;5015008;28;19914;-68
2023/04/25 06:47:56;;;;;;;;;;;;;;;15.18;51.47;100642.25;5014512;28;19914;-69
2023/04/25 06:50:22;;;;;;;;;;;;;;;15.15;50.58;100640.78;5014212;28;20356;-71
2023/04/25 06:52:47;;;;;;;;;;;;;;;15.18;51.05;100635.03;5014770;28;19920;-69
2023/04/25 06:55:12;;;;;;;;;;;;;;;15.18;50.12;100632.34;5014268;28;19960;-70
2023/04/25 06:57:38;;;;;;;;;;;;;;;15.17;51.42;100641.41;4993788;28;19926;-69
2023/04/25 07:00:05;;;;;;;;;;;;;;;15.12;50.48;100643.03;4996903;28;19929;-66
2023/04/25 07:02:30;;;;;;;;;;;;;;;15.15;51.84;100640.78;4975474;28;20338;-69
2023/04/25 07:04:59;;;;;;;;;;;;;;;15.27;51.99;100640.25;4984782;28;20016;-69
2023/04/25 07:07:24;;;;;;;;;;;;;;;15.38;51.35;100632.50;4983402;28;19978;-68
2023/04/25 07:09:50;;;;;;;;;;;;;;;15.49;50.86;100623.03;4986061;28;20016;-69
2023/04/25 07:12:15;;;;;;;;;;;;;;;15.62;51.16;100622.34;4985038;28;19920;-69
2023/04/25 07:14:41;;;;;;;;;;;;;;;15.71;49.33;100627.34;4996191;28;20366;-68
2023/04/25 07:17:06;;;;;;;;;;;;;;;15.83;48.77;100616.00;4985046;28;19974;-68
2023/04/25 07:19:33;;;;;;;;;;;;;;;15.96;48.44;100630.34;4989229;28;19914;-66
2023/04/25 07:21:58;;;;;;;;;;;;;;;16.13;48.52;100625.41;4980323;28;20017;-69
2023/04/25 07:24:23;;;;;;;;;;;;;;;16.22;47.37;100629.59;4983561;28;19954;-68
2023/04/25 07:26:49;;;;;;;;;;;;;;;16.30;48.92;100628.56;4986011;28;19917;-70
2023/04/25 07:29:18;;;;;;;;;;;;;;;16.32;46.12;100624.66;4965827;28;19914;-68
2023/04/25 07:31:43;;;;;;;;;;;;;;;16.46;44.61;100620.13;4982784;28;19922;-66
2023/04/25 07:34:08;;;;;;;;;;;;;;;16.61;45.17;100622.63;4985368;28;19929;-65
2023/04/25 07:36:34;;;;;;;;;;;;;;;16.70;43.64;100621.41;4970856;28;19914;-67
2023/04/25 07:38:59;;;;;;;;;;;;;;;16.82;43.67;100617.09;4994592;28;19919;-68
2023/04/25 07:41:25;;;;;;;;;;;;;;;16.89;43.24;100620.59;4989275;28;19960;-69
2023/04/25 07:44:00;;;;;;;;;;;;;;;16.98;44.61;100624.72;5088914;27;19929;-68
2023/04/25 07:46:25;;;;;;;;;;;;;;;17.03;42.07;100619.56;5089316;28;19961;-66
2023/04/25 07:48:51;;;;;;;;;;;;;;;17.11;42.38;100623.91;5089463;28;19996;-65
2023/04/25 07:51:19;;;;;;;;;;;;;;;17.26;41.36;100623.69;5089666;28;19923;-66
2023/04/25 07:53:45;;;;;;;;;;;;;;;17.43;40.41;100622.19;5088857;28;20410;-65
2023/04/25 07:56:11;;;;;;;;;;;;;;;17.52;40.18;100615.53;5089018;28;19912;-69
2023/04/25 07:58:36;;;;;;;;;;;;;;;17.65;39.47;100625.47;5089703;28;20243;-63
2023/04/25 08:01:02;;;;;;;;;;;;;;;17.76;38.43;100621.31;5089436;28;19913;-67
2023/04/25 08:03:27;;;;;;;;;;;;;;;17.86;38.34;100624.38;5089231;28;19912;-65
2023/04/25 08:05:52;;;;;;;;;;;;;;;17.97;37.97;100623.72;5089571;28;19920;-66
2023/04/25 08:08:18;;;;;;;;;;;;;;;18.04;36.86;100624.50;5089569;28;19913;-65
2023/04/25 08:10:43;;;;;;;;;;;;;;;18.11;34.80;100630.69;5089313;28;19994;-65
2023/04/25 08:13:08;;;;;;;;;;;;;;;18.15;35.83;100620.28;5089490;28;20027;-66
2023/04/25 08:15:34;;;;;;;;;;;;;;;18.15;35.26;100622.97;5089264;28;19919;-66
2023/04/25 08:17:59;;;;;;;;;;;;;;;18.21;34.43;100622.13;5089121;28;19916;-65
2023/04/25 08:20:24;;;;;;;;;;;;;;;18.31;34.67;100616.28;5089486;28;19919;-66
2023/04/25 08:22:50;;;;;;;;;;;;;;;18.38;32.67;100622.44;5089259;28;19973;-65
2023/04/25 08:25:15;;;;;;;;;;;;;;;18.48;34.75;100620.09;5089191;28;20318;-66
2023/04/25 08:27:41;;;;;;;;;;;;;;;18.58;33.24;100623.16;5088947;28;19916;-65
2023/04/25 08:30:08;;;;;;;;;;;;;;;18.63;33.08;100626.03;5089062;28;20280;-66
2023/04/25 08:32:34;;;;;;;;;;;;;;;18.66;33.79;100624.78;5088857;28;19958;-65
2023/04/25 08:34:59;;;;;;;;;;;;;;;18.68;33.11;100625.38;5089155;28;19916;-66
2023/04/25 08:37:24;;;;;;;;;;;;;;;18.75;33.14;100620.75;5089041;28;19913;-66
2023/04/25 08:39:52;;;;;;;;;;;;;;;18.85;32.88;100616.53;5088921;28;19947;-65
2023/04/25 08:42:19;;;;;;;;;;;;;;;18.88;32.87;100626.88;5088734;28;19917;-66
2023/04/25 08:44:48;;;;;;;;;;;;;;;18.85;32.00;100621.94;5088079;28;19917;-65
2023/04/25 08:47:13;;;;;;;;;;;;;;;18.87;32.47;100619.00;5089046;28;20371;-66
2023/04/25 08:49:39;;;;;;;;;;;;;;;18.87;32.51;100627.94;5088586;28;19916;-66
2023/04/25 08:52:07;;;;;;;;;;;;;;;18.89;31.44;100616.91;5088494;28;19912;-67
2023/04/25 08:54:33;;;;;;;;;;;;;;;18.97;32.47;100616.63;5079303;28;20336;-66
2023/04/25 08:57:01;;;;;;;;;;;;;;;19.02;31.01;100622.19;5074967;28;19912;-66
2023/04/25 08:59:27;;;;;;;;;;;;;;;19.13;31.07;100605.28;5074638;28;19912;-66
2023/04/25 09:01:52;;;;;;;;;;;;;;;19.22;30.19;100610.38;5075034;28;19919;-66
2023/04/25 09:04:18;;;;;;;;;;;;;;;19.13;31.26;100621.47;5074811;28;19912;-66
2023/04/25 09:06:43;;;;;;;;;;;;;;;18.92;31.78;100613.78;5074515;28;19912;-65
2023/04/25 09:09:10;;;;;;;;;;;;;;;18.88;31.68;100617.97;5075055;28;19974;-64
2023/04/25 09:11:36;;;;;;;;;;;;;;;19.00;30.05;100608.09;5075145;28;19956;-65
2023/04/25 09:14:20;;;;;;;;;;;;;;;19.22;31.11;100611.22;5074067;28;19920;-65
2023/04/25 09:17:00;;;;;;;;;;;;;;;19.47;30.00;100609.28;5076608;28;19912;-64
2023/04/25 09:19:27;;;;;;;;;;;;;;;19.65;29.33;100605.78;5076179;28;19912;-65
2023/04/25 09:21:56;;;;;;;;;;;;;;;19.79;29.95;100617.28;5074596;28;19920;-66
2023/04/25 09:24:31;;;;;;;;;;;;;;;19.86;29.80;100609.91;5074399;28;19944;-65
2023/04/25 09:26:57;;;;;;;;;;;;;;;19.95;29.14;100600.44;5074319;28;20453;-65
2023/04/25 09:29:34;;;;;;;;;;;;;;;20.03;28.91;100602.00;5074004;28;20345;-66
2023/04/25 09:32:14;;;;;;;;;;;;;;;20.14;28.62;100603.09;5074398;28;19917;-65
2023/04/25 09:34:41;;;;;;;;;;;;;;;20.14;28.99;100603.09;5074300;28;19918;-66
2023/04/25 09:37:08;;;;;;;;;;;;;;;20.06;28.97;100601.53;5074359;28;20006;-65
2023/04/25 09:39:33;;;;;;;;;;;;;;;19.94;28.63;100603.34;5074333;28;19912;-66
2023/04/25 09:41:59;;;;;;;;;;;;;;;19.98;29.67;100605.41;5074089;28;19916;-65
2023/04/25 09:44:24;;;;;;;;;;;;;;;20.16;29.30;100606.38;5074346;28;19970;-66
2023/04/25 09:46:53;;;;;;;;;;;;;;;20.31;29.52;100604.94;5074081;28;20314;-66
2023/04/25 09:49:19;;;;;;;;;;;;;;;20.49;28.96;100595.94;5074000;28;19912;-67
2023/04/25 09:51:58;;;;;;;;;;;;;;;20.55;28.17;100611.28;5074282;28;19912;-66
2023/04/25 09:54:26;;;;;;;;;;;;;;;20.42;29.07;100609.56;5074019;28;20356;-65
2023/04/25 09:56:52;;;;;;;;;;;;;;;20.23;28.07;100620.63;5073778;28;20018;-66
2023/04/25 09:59:22;;;;;;;;;;;;;;;20.05;28.73;100606.13;5073816;28;20046;-66
2023/04/25 10:01:48;;;;;;;;;;;;;;;20.00;28.34;100611.41;5073357;28;19923;-65
2023/04/25 10:04:15;;;;;;;;;;;;;;;20.18;29.43;100602.41;5073680;28;19912;-66
2023/04/25 10:06:42;;;;;;;;;;;;;;;20.40;28.57;100613.56;5072861;28;19912;-66
2023/04/25 10:09:08;;;;;;;;;;;;;;;20.60;27.74;100614.09;5073630;28;19912;-66
2023/04/25 10:11:34;;;;;;;;;;;;;;;20.82;28.12;100610.84;5075800;28;19938;-66
2023/04/25 10:14:00;;;;;;;;;;;;;;;20.96;27.76;100612.25;5077851;28;20397;-65
2023/04/25 10:16:26;;;;;;;;;;;;;;;21.06;28.51;100612.50;5073698;28;19919;-65
2023/04/25 10:18:51;;;;;;;;;;;;;;;20.94;28.47;100612.50;5074385;28;19916;-66
2023/04/25 10:21:17;;;;;;;;;;;;;;;20.81;28.10;100614.59;5073842;28;19960;-67
2023/04/25 10:23:43;;;;;;;;;;;;;;;20.68;27.04;100616.47;5073714;28;20010;-68
2023/04/25 10:26:12;;;;;;;;;;;;;;;20.67;27.50;100604.00;5073309;28;19960;-69
2023/04/25 10:29:00;;;;;;;;;;;;;;;20.85;27.21;100607.69;5073413;28;19913;-68
2023/04/25 10:31:26;;;;;;;;;;;;;;;20.94;28.04;100603.56;5073764;28;19917;-68
2023/04/25 10:33:51;;;;;;;;;;;;;;;20.88;27.22;100607.22;5072436;28;19912;-68
2023/04/25 10:36:18;;;;;;;;;;;;;;;20.90;27.72;100607.78;5076257;28;19935;-68
2023/04/25 10:38:44;;;;;;;;;;;;;;;20.85;27.63;100615.78;5073402;28;19946;-68
2023/04/25 10:41:10;;;;;;;;;;;;;;;20.70;27.87;100617.06;5072698;28;19916;-69
2023/04/25 10:43:42;;;;;;;;;;;;;;;20.60;27.49;100629.50;5073177;28;19917;-69
2023/04/25 10:46:15;;;;;;;;;;;;;;;20.50;28.06;100621.09;5071703;28;19923;-69
2023/04/25 10:48:44;;;;;;;;;;;;;;;20.37;27.82;100617.53;5072784;28;19958;-67
2023/04/25 10:51:10;;;;;;;;;;;;;;;20.31;28.03;100615.75;5072769;28;19916;-66
2023/04/25 10:53:36;;;;;;;;;;;;;;;20.36;28.18;100631.28;5072556;28;19938;-66
2023/04/25 10:56:11;;;;;;;;;;;;;;;20.58;27.59;100621.63;5072179;28;19912;-66
2023/04/25 10:58:41;;;;;;;;;;;;;;;20.78;27.26;100617.75;5072612;28;19950;-66
2023/04/25 11:01:06;;;;;;;;;;;;;;;20.88;27.29;100623.44;5072692;28;19913;-67
2023/04/25 11:03:32;;;;;;;;;;;;;;;20.91;27.34;100625.69;5072449;28;20266;-68
2023/04/25 11:05:59;;;;;;;;;;;;;;;20.88;27.37;100631.56;5072521;28;20368;-66
2023/04/25 11:08:43;;;;;;;;;;;;;;;20.93;27.45;100618.97;5072511;28;19912;-68
2023/04/25 11:11:09;;;;;;;;;;;;;;;20.94;27.55;100623.31;5072652;28;19912;-68
2023/04/25 11:13:34;;;;;;;;;;;;;;;20.95;27.44;100621.44;5072657;28;19913;-68
2023/04/25 11:15:59;;;;;;;;;;;;;;;20.91;27.17;100617.56;5071961;28;19923;-67
2023/04/25 11:18:26;;;;;;;;;;;;;;;20.91;27.69;100625.69;5072145;28;19916;-69
2023/04/25 11:20:51;;;;;;;;;;;;;;;20.86;27.37;100628.28;5072466;28;19916;-68
2023/04/25 11:23:16;;;;;;;;;;;;;;;20.72;27.18;100624.94;5072058;28;19919;-70
2023/04/25 11:25:42;;;;;;;;;;;;;;;20.73;27.89;100623.88;5072243;28;19913;-70
2023/04/25 11:28:07;;;;;;;;;;;;;;;20.93;28.11;100618.16;5072341;28;19913;-69
2023/04/25 11:30:33;;;;;;;;;;;;;;;21.23;27.13;100623.47;5072172;28;20426;-67
2023/04/25 11:32:58;;;;;;;;;;;;;;;21.54;27.03;100625.00;5072191;28;19924;-68
2023/04/25 11:35:25;;;;;;;;;;;;;;;21.79;26.46;100617.41;5072083;28;19919;-66
2023/04/25 11:37:50;;;;;;;;;;;;;;;21.90;26.35;100619.25;5072512;28;19920;-68
2023/04/25 11:40:16;;;;;;;;;;;;;;;21.61;25.70;100620.25;5071950;28;19932;-68
2023/04/25 11:42:46;;;;;;;;;;;;;;;21.43;26.36;100623.13;5072017;28;20324;-67
2023/04/25 11:45:11;;;;;;;;;;;;;;;21.19;25.66;100623.09;5072059;28;19924;-66
2023/04/25 11:47:37;;;;;;;;;;;;;;;21.01;26.58;100618.63;5072241;28;20232;-68
2023/04/25 11:50:03;;;;;;;;;;;;;;;20.89;26.29;100619.69;5071785;28;19912;-67
2023/04/25 11:52:39;;;;;;;;;;;;;;;20.84;26.13;100614.16;5071984;28;19912;-68
2023/04/25 11:55:14;;;;;;;;;;;;;;;20.98;26.38;100610.16;5074272;28;20008;-68
2023/04/25 11:57:40;;;;;;;;;;;;;;;21.21;26.20;100618.28;5072954;28;20394;-67
2023/04/25 12:00:12;;;;;;;;;;;;;;;21.25;26.12;100624.91;5072627;28;19912;-68
2023/04/25 12:02:42;;;;;;;;;;;;;;;21.16;26.04;100623.59;5072093;28;19919;-70
2023/04/25 12:05:08;;;;;;;;;;;;;;;21.04;25.82;100620.03;5070775;28;20023;-71
2023/04/25 12:07:34;;;;;;;;;;;;;;;20.93;26.84;100612.75;5076854;28;19912;-73
2023/04/25 12:09:59;;;;;;;;;;;;;;;20.91;26.81;100607.56;5078705;28;20283;-70
2023/04/25 12:12:32;;;;;;;;;;;;;;;20.89;27.00;100609.69;5077060;28;19923;-73
2023/04/25 12:15:08;;;;;;;;;;;;;;;20.91;26.96;100601.31;5081579;28;19927;-72
2023/04/25 12:17:33;;;;;;;;;;;;;;;20.90;26.10;100597.78;5088429;28;19920;-74
2023/04/25 12:19:59;;;;;;;;;;;;;;;20.94;25.80;100604.38;5085382;28;20358;-70
2023/04/25 12:22:25;;;;;;;;;;;;;;;21.06;25.70;100596.25;5074604;28;19920;-71
2023/04/25 12:24:51;;;;;;;;;;;;;;;21.32;26.17;100594.97;5074838;28;20424;-67
2023/04/25 12:27:18;;;;;;;;;;;;;;;21.57;25.51;100592.00;5075176;28;19998;-68
2023/04/25 12:29:53;;;;;;;;;;;;;;;21.64;25.14;100595.38;5074252;28;19912;-68
2023/04/25 12:32:20;;;;;;;;;;;;;;;21.56;25.34;100601.19;5076028;28;19927;-68
2023/04/25 12:34:46;;;;;;;;;;;;;;;21.34;25.86;100604.50;5075711;28;19916;-68